• Join FlightAware (Why Join?)
  • Login
  • US Flag 
11:22PM EDT


 

Airport Tracker/Info


-or-


 

Live Flight TrackerFlight Track Log ✈ UAL274 ✈ 11-May-2013 ✈ KLAX - MMMX / MEX

Flight Track Log - Related Links

Times and Time Zones

All times are in EDT time to prevent confusion due to time zone crossing. See the UAL274 flight status page for this flight to view local times or setup timezone preferences in your user account.

Time Position Orientation Groundspeed Altitude Reporting Facility
EDT Latitude Longitude Course Direction KTS MPH feet Rate Location/Type
09:16PM 33.9167 -118.4833 90° East 208 239 3,000  Level Southern California TRACON
09:18PM 33.7575 -118.6100 132° Southeast  Level FlightAware Approximate
09:18PM 33.8578 -118.5331 215° Southwest 257 296 5,300  Level Los Angeles Center
09:19PM 33.6715 -118.4968 126° Southeast  Level FlightAware Approximate
09:19PM 33.7728 -118.5269 177° South 286 329 8,600  Level Los Angeles Center
09:20PM 33.6012 -118.3690 121° Southeast  Level FlightAware Approximate
09:20PM 33.6844 -118.4789 156° South 319 367 11,300  Level Los Angeles Center
09:21PM 33.5354 -118.2417 107° East  Level FlightAware Approximate
09:21PM 33.6356 -118.4136 132° Southeast 335 386 13,600  Level Los Angeles Center
09:22PM 33.5000 -118.1022 90° East  Level FlightAware Approximate
09:22PM 33.5597 -118.3100 131° Southeast 350 403 16,500  Level Los Angeles Center
09:23PM 33.4931 -118.2197 132° Southeast 363 418 18,800 2,160 Climbing Los Angeles Center
09:24PM 33.4239 -118.1261 132° Southeast 376 433 20,900 1,800 Climbing Los Angeles Center
09:25PM 33.3367 -118.0092 132° Southeast 393 452 22,600 1,020 Climbing Los Angeles Center
09:26PM 33.2558 -117.9017 132° Southeast 433 498 23,100 480 Climbing Los Angeles Center
09:27PM 33.1683 -117.7847 132° Southeast 469 540 23,600 720 Climbing Los Angeles Center
09:28PM 33.0781 -117.6636 132° Southeast 487 560 24,600 1,020 Climbing Los Angeles Center
09:29PM 32.9867 -117.5433 132° Southeast 491 565 26,000 1,200 Climbing Los Angeles Center
09:30PM 32.8781 -117.4008 132° Southeast 487 560 27,400 1,320 Climbing Los Angeles Center
09:31PM 32.7739 -117.2625 132° Southeast 490 564 28,800 1,380 Climbing Los Angeles Center
09:32PM 32.6842 -117.1414 131° Southeast 492 566 30,300 1,380 Climbing Los Angeles Center
09:33PM 32.5933 -117.0242 133° Southeast 489 563 31,700 1,320 Climbing Los Angeles Center
09:34PM 32.5056 -116.9097 132° Southeast 478 550 33,100 1,320 Climbing Los Angeles Center
09:36PM 32.3796 -116.7506 133° Southeast  Level FlightAware Approximate
09:43PM 31.7544 -115.9708 133° Southeast  Level FlightAware Approximate
09:44PM 31.6652 -115.8597 133° Southeast  Level FlightAware Approximate
09:45PM 31.5759 -115.7488 133° Southeast  Level FlightAware Approximate
09:46PM 31.4865 -115.6382 133° Southeast  Level FlightAware Approximate
09:47PM 31.3970 -115.5277 133° Southeast  Level FlightAware Approximate
09:48PM 31.3074 -115.4175 134° Southeast  Level FlightAware Approximate
09:49PM 31.2178 -115.3075 134° Southeast  Level FlightAware Approximate
09:50PM 31.1280 -115.1976 134° Southeast  Level FlightAware Approximate
09:51PM 31.0381 -115.0880 134° Southeast  Level FlightAware Approximate
09:52PM 30.9481 -114.9786 134° Southeast  Level FlightAware Approximate
09:53PM 30.8579 -114.8696 134° Southeast  Level FlightAware Approximate
09:54PM 30.7671 -114.7613 134° Southeast  Level FlightAware Approximate
09:55PM 30.6768 -114.6538 134° Southeast  Level FlightAware Approximate
09:56PM 30.5863 -114.5466 134° Southeast  Level FlightAware Approximate
09:57PM 30.4958 -114.4395 134° Southeast  Level FlightAware Approximate
09:58PM 30.4051 -114.3326 134° Southeast  Level FlightAware Approximate
09:59PM 30.3144 -114.2259 135° Southeast  Level FlightAware Approximate
10:00PM 30.2236 -114.1194 135° Southeast  Level FlightAware Approximate
10:01PM 30.1327 -114.0131 135° Southeast  Level FlightAware Approximate
10:02PM 30.0418 -113.9069 134° Southeast  Level FlightAware Approximate
10:03PM 29.9518 -113.7998 134° Southeast  Level FlightAware Approximate
10:04PM 29.8618 -113.6929 134° Southeast  Level FlightAware Approximate
10:05PM 29.7716 -113.5862 134° Southeast  Level FlightAware Approximate
10:06PM 29.6809 -113.4801 134° Southeast  Level FlightAware Approximate
10:07PM 29.5902 -113.3742 135° Southeast  Level FlightAware Approximate
10:08PM 29.4994 -113.2684 135° Southeast  Level FlightAware Approximate
10:09PM 29.4086 -113.1629 135° Southeast  Level FlightAware Approximate
10:10PM 29.3176 -113.0575 135° Southeast  Level FlightAware Approximate
10:11PM 29.2266 -112.9524 135° Southeast  Level FlightAware Approximate
10:12PM 29.1349 -112.8480 136° Southeast  Level FlightAware Approximate
10:13PM 29.0422 -112.7449 136° Southeast  Level FlightAware Approximate
10:14PM 28.9495 -112.6420 136° Southeast  Level FlightAware Approximate
10:15PM 28.8566 -112.5393 136° Southeast  Level FlightAware Approximate
10:16PM 28.7637 -112.4368 136° Southeast  Level FlightAware Approximate
10:17PM 28.6710 -112.3340 135° Southeast  Level FlightAware Approximate
10:18PM 28.5791 -112.2306 135° Southeast  Level FlightAware Approximate
10:19PM 28.4872 -112.1271 135° Southeast  Level FlightAware Approximate
10:20PM 28.3954 -112.0237 135° Southeast  Level FlightAware Approximate
10:21PM 28.3034 -111.9205 135° Southeast  Level FlightAware Approximate
10:22PM 28.2066 -111.8232 139° Southeast  Level FlightAware Approximate
10:23PM 28.1119 -111.7236 135° Southeast  Level FlightAware Approximate
10:24PM 28.0203 -111.6202 135° Southeast  Level FlightAware Approximate
10:25PM 27.9287 -111.5171 135° Southeast  Level FlightAware Approximate
10:26PM 27.8370 -111.4141 135° Southeast  Level FlightAware Approximate
10:27PM 27.7451 -111.3113 136° Southeast  Level FlightAware Approximate
10:28PM 27.6529 -111.2090 136° Southeast  Level FlightAware Approximate
10:29PM 27.5606 -111.1069 136° Southeast  Level FlightAware Approximate
10:30PM 27.4682 -111.0050 136° Southeast  Level FlightAware Approximate
10:31PM 27.3757 -110.9033 136° Southeast  Level FlightAware Approximate
10:32PM 27.2832 -110.8017 136° Southeast  Level FlightAware Approximate
10:33PM 27.1906 -110.7003 136° Southeast  Level FlightAware Approximate
10:34PM 27.0979 -110.5990 136° Southeast  Level FlightAware Approximate
10:35PM 27.0052 -110.4979 136° Southeast  Level FlightAware Approximate
10:36PM 26.9124 -110.3970 136° Southeast  Level FlightAware Approximate
10:37PM 26.8195 -110.2963 136° Southeast  Level FlightAware Approximate
10:38PM 26.7266 -110.1957 136° Southeast  Level FlightAware Approximate
10:39PM 26.6335 -110.0953 136° Southeast  Level FlightAware Approximate
10:40PM 26.5404 -109.9950 136° Southeast  Level FlightAware Approximate
10:41PM 26.4473 -109.8950 136° Southeast  Level FlightAware Approximate
10:42PM 26.3540 -109.7950 136° Southeast  Level FlightAware Approximate
10:43PM 26.2607 -109.6953 136° Southeast  Level FlightAware Approximate
10:44PM 26.1674 -109.5956 136° Southeast  Level FlightAware Approximate
10:45PM 26.0729 -109.4951 136° Southeast  Level FlightAware Approximate
10:46PM 25.9783 -109.3947 137° Southeast  Level FlightAware Approximate
10:47PM 25.8834 -109.2948 137° Southeast  Level FlightAware Approximate
10:48PM 25.7890 -109.1956 137° Southeast  Level FlightAware Approximate
10:49PM 25.6945 -109.0966 137° Southeast  Level FlightAware Approximate
10:50PM 25.6136 -108.9853 122° Southeast  Level FlightAware Approximate
10:51PM 25.5446 -108.8631 122° Southeast  Level FlightAware Approximate
10:52PM 25.4756 -108.7411 122° Southeast  Level FlightAware Approximate
10:53PM 25.4072 -108.6187 121° Southeast  Level FlightAware Approximate
10:54PM 25.3400 -108.4956 121° Southeast  Level FlightAware Approximate
10:55PM 25.2711 -108.3738 122° Southeast  Level FlightAware Approximate
10:56PM 25.2018 -108.2522 122° Southeast  Level FlightAware Approximate
10:57PM 25.1325 -108.1308 122° Southeast  Level FlightAware Approximate
10:58PM 25.0630 -108.0095 122° Southeast  Level FlightAware Approximate
10:59PM 24.9935 -107.8883 122° Southeast  Level FlightAware Approximate
11:00PM 24.9234 -107.7666 122° Southeast  Level FlightAware Approximate
11:01PM 24.8533 -107.6451 122° Southeast  Level FlightAware Approximate
11:02PM 24.7830 -107.5237 122° Southeast  Level FlightAware Approximate
11:03PM 24.7136 -107.4018 122° Southeast  Level FlightAware Approximate
11:04PM 24.6448 -107.2795 122° Southeast  Level FlightAware Approximate
11:05PM 24.5759 -107.1574 122° Southeast  Level FlightAware Approximate
11:06PM 24.5069 -107.0354 122° Southeast  Level FlightAware Approximate
11:07PM 24.4378 -106.9135 122° Southeast  Level FlightAware Approximate
11:08PM 24.3686 -106.7918 122° Southeast  Level FlightAware Approximate
11:09PM 24.2993 -106.6702 122° Southeast  Level FlightAware Approximate
11:10PM 24.2299 -106.5487 122° Southeast  Level FlightAware Approximate
11:11PM 24.1604 -106.4274 122° Southeast  Level FlightAware Approximate
11:12PM 24.0908 -106.3062 122° Southeast  Level FlightAware Approximate
11:13PM 24.0212 -106.1851 122° Southeast  Level FlightAware Approximate
11:14PM 23.9514 -106.0641 122° Southeast  Level FlightAware Approximate
11:15PM 23.8815 -105.9433 122° Southeast  Level FlightAware Approximate
11:16PM 23.8116 -105.8226 122° Southeast  Level FlightAware Approximate
11:17PM 23.7415 -105.7021 123° Southeast  Level FlightAware Approximate
11:18PM 23.6712 -105.5818 123° Southeast  Level FlightAware Approximate
11:19PM 23.6008 -105.4616 123° Southeast  Level FlightAware Approximate
11:20PM 23.5303 -105.3416 123° Southeast  Level FlightAware Approximate
11:21PM 23.4597 -105.2217 123° Southeast  Level FlightAware Approximate
11:22PM 23.3890 -105.1019 123° Southeast  Level FlightAware Approximate
11:23PM 23.3182 -104.9822 123° Southeast  Level FlightAware Approximate
11:24PM 23.2473 -104.8627 123° Southeast  Level FlightAware Approximate
11:25PM 23.1764 -104.7433 123° Southeast  Level FlightAware Approximate
11:26PM 23.1053 -104.6240 123° Southeast  Level FlightAware Approximate
11:27PM 23.0342 -104.5049 123° Southeast  Level FlightAware Approximate
11:28PM 22.9629 -104.3859 123° Southeast  Level FlightAware Approximate
11:29PM 22.8916 -104.2670 123° Southeast  Level FlightAware Approximate
11:30PM 22.8202 -104.1482 123° Southeast  Level FlightAware Approximate
11:31PM 22.7487 -104.0295 123° Southeast  Level FlightAware Approximate
11:32PM 22.6772 -103.9110 123° Southeast  Level FlightAware Approximate
11:33PM 22.6055 -103.7926 123° Southeast  Level FlightAware Approximate
11:34PM 22.5337 -103.6743 123° Southeast  Level FlightAware Approximate
11:35PM 22.4619 -103.5562 123° Southeast  Level FlightAware Approximate
11:36PM 22.3900 -103.4382 123° Southeast  Level FlightAware Approximate
11:37PM 22.3180 -103.3202 123° Southeast  Level FlightAware Approximate
11:38PM 22.2460 -103.2023 123° Southeast  Level FlightAware Approximate
11:39PM 22.1740 -103.0846 123° Southeast  Level FlightAware Approximate
11:40PM 22.1018 -102.9670 123° Southeast  Level FlightAware Approximate
11:41PM 22.0287 -102.8482 124° Southeast  Level FlightAware Approximate
11:42PM 21.9556 -102.7294 124° Southeast  Level FlightAware Approximate
11:43PM 21.8824 -102.6109 124° Southeast  Level FlightAware Approximate
11:44PM 21.8095 -102.4931 124° Southeast  Level FlightAware Approximate
11:45PM 21.7365 -102.3754 124° Southeast  Level FlightAware Approximate
11:46PM 21.6741 -102.2516 113° Southeast  Level FlightAware Approximate
11:47PM 21.6222 -102.1217 113° Southeast  Level FlightAware Approximate
11:48PM 21.5703 -101.9919 113° Southeast  Level FlightAware Approximate
11:49PM 21.5183 -101.8621 113° Southeast  Level FlightAware Approximate
11:50PM 21.4596 -101.7359 118° Southeast  Level FlightAware Approximate
11:51PM 21.4070 -101.6066 113° Southeast  Level FlightAware Approximate
11:52PM 21.3561 -101.4765 113° Southeast  Level FlightAware Approximate
11:53PM 21.3051 -101.3465 113° Southeast  Level FlightAware Approximate
11:54PM 21.2347 -101.2277 124° Southeast  Level FlightAware Approximate
11:55PM 21.1620 -101.1102 124° Southeast  Level FlightAware Approximate
11:56PM 21.0893 -100.9929 124° Southeast  Level FlightAware Approximate
11:57PM 21.0221 -100.8710 120° Southeast  Level FlightAware Approximate
11:58PM 20.9532 -100.7503 123° Southeast  Level FlightAware Approximate
11:59PM 20.8811 -100.6317 123° Southeast  Level FlightAware Approximate
12:00AM 20.8089 -100.5132 123° Southeast  Level FlightAware Approximate
12:01AM 20.7333 -100.3984 90° East  Level FlightAware Approximate
12:02AM 20.6720 -100.2756 123° Southeast  Level FlightAware Approximate
12:03AM 20.5974 -100.1593 131° Southeast  Level FlightAware Approximate
12:04AM 20.5136 -100.0502 128° Southeast  Level FlightAware Approximate
12:05AM 20.4321 -99.9391 128° Southeast  Level FlightAware Approximate
12:06AM 20.3498 -99.8289 130° Southeast  Level FlightAware Approximate
12:07AM 20.2642 -99.7216 130° Southeast  Level FlightAware Approximate
12:08AM 20.1785 -99.6144 130° Southeast  Level FlightAware Approximate
12:09AM 20.0927 -99.5073 130° Southeast  Level FlightAware Approximate
12:10AM 20.0098 -99.3979 125° Southeast  Level FlightAware Approximate
12:11AM 19.9333 -99.2833 118° Southeast  Level FlightAware Approximate
12:12AM 19.8508 -99.1747 133° Southeast  Level FlightAware Approximate
12:13AM 19.7667 -99.0667 125° Southeast  Level FlightAware Approximate
12:14AM 19.6607 -99.0333 180° South  Level FlightAware Approximate
12:15AM 19.5295 -99.0441 191° South  Level FlightAware Approximate
12:16AM 19.4363 -99.0721 191° South  Level Estimated
12:17AM 19.4363 -99.0721 191° South  Level Estimated
12:18AM 19.4363 -99.0721 191° South  Level Estimated